sensor_id;sensor_type;location;lat;lon;timestamp;P1;durP1;ratioP1;P2;durP2;ratioP2
41817;SDS011;27493;51.730;5.294;2023-02-10T00:00:42;59.93;;;29.87;;
41817;SDS011;27493;51.730;5.294;2023-02-10T00:03:07;64.07;;;30.37;;
41817;SDS011;27493;51.730;5.294;2023-02-10T00:05:32;55.77;;;30.03;;
41817;SDS011;27493;51.730;5.294;2023-02-10T00:07:57;58.70;;;29.50;;
41817;SDS011;27493;51.730;5.294;2023-02-10T00:10:23;56.10;;;28.23;;
41817;SDS011;27493;51.730;5.294;2023-02-10T00:12:48;58.70;;;29.10;;
41817;SDS011;27493;51.730;5.294;2023-02-10T00:15:13;53.57;;;28.50;;
41817;SDS011;27493;51.730;5.294;2023-02-10T00:17:38;54.67;;;28.27;;
41817;SDS011;27493;51.730;5.294;2023-02-10T00:20:03;61.33;;;29.20;;
41817;SDS011;27493;51.730;5.294;2023-02-10T00:22:29;60.40;;;29.27;;
41817;SDS011;27493;51.730;5.294;2023-02-10T00:24:54;57.57;;;29.13;;
41817;SDS011;27493;51.730;5.294;2023-02-10T00:27:19;54.90;;;27.93;;
41817;SDS011;27493;51.730;5.294;2023-02-10T00:29:48;51.77;;;26.93;;
41817;SDS011;27493;51.730;5.294;2023-02-10T00:32:14;56.80;;;28.67;;
41817;SDS011;27493;51.730;5.294;2023-02-10T00:34:39;57.17;;;27.13;;
41817;SDS011;27493;51.730;5.294;2023-02-10T00:37:04;54.60;;;27.53;;
41817;SDS011;27493;51.730;5.294;2023-02-10T00:39:29;51.87;;;26.63;;
41817;SDS011;27493;51.730;5.294;2023-02-10T00:41:55;53.87;;;27.33;;
41817;SDS011;27493;51.730;5.294;2023-02-10T00:44:20;52.80;;;26.93;;
41817;SDS011;27493;51.730;5.294;2023-02-10T00:46:45;56.97;;;27.03;;
41817;SDS011;27493;51.730;5.294;2023-02-10T00:49:10;58.30;;;26.10;;
41817;SDS011;27493;51.730;5.294;2023-02-10T00:51:36;54.80;;;27.37;;
41817;SDS011;27493;51.730;5.294;2023-02-10T00:54:01;56.50;;;27.77;;
41817;SDS011;27493;51.730;5.294;2023-02-10T00:56:26;51.77;;;25.87;;
41817;SDS011;27493;51.730;5.294;2023-02-10T00:58:51;54.23;;;26.07;;
41817;SDS011;27493;51.730;5.294;2023-02-10T01:01:16;49.10;;;25.70;;
41817;SDS011;27493;51.730;5.294;2023-02-10T01:03:42;51.77;;;25.77;;
41817;SDS011;27493;51.730;5.294;2023-02-10T01:06:07;51.77;;;25.73;;
41817;SDS011;27493;51.730;5.294;2023-02-10T01:08:33;48.93;;;25.57;;
41817;SDS011;27493;51.730;5.294;2023-02-10T01:10:59;46.33;;;24.43;;
41817;SDS011;27493;51.730;5.294;2023-02-10T01:13:24;49.27;;;24.67;;
41817;SDS011;27493;51.730;5.294;2023-02-10T01:15:49;49.27;;;25.27;;
41817;SDS011;27493;51.730;5.294;2023-02-10T01:18:15;47.03;;;23.90;;
41817;SDS011;27493;51.730;5.294;2023-02-10T01:20:40;47.30;;;24.13;;
41817;SDS011;27493;51.730;5.294;2023-02-10T01:23:06;47.07;;;23.97;;
41817;SDS011;27493;51.730;5.294;2023-02-10T01:25:32;46.43;;;24.13;;
41817;SDS011;27493;51.730;5.294;2023-02-10T01:27:57;47.23;;;24.57;;
41817;SDS011;27493;51.730;5.294;2023-02-10T01:30:22;48.97;;;24.27;;
41817;SDS011;27493;51.730;5.294;2023-02-10T01:32:47;48.73;;;23.90;;
41817;SDS011;27493;51.730;5.294;2023-02-10T01:35:16;44.37;;;23.07;;
41817;SDS011;27493;51.730;5.294;2023-02-10T01:37:42;49.13;;;24.00;;
41817;SDS011;27493;51.730;5.294;2023-02-10T01:40:07;47.37;;;23.20;;
41817;SDS011;27493;51.730;5.294;2023-02-10T01:42:32;45.60;;;24.30;;
41817;SDS011;27493;51.730;5.294;2023-02-10T01:47:41;45.73;;;23.33;;
41817;SDS011;27493;51.730;5.294;2023-02-10T01:50:07;41.87;;;22.93;;
41817;SDS011;27493;51.730;5.294;2023-02-10T01:52:32;43.50;;;23.63;;
41817;SDS011;27493;51.730;5.294;2023-02-10T01:55:07;42.77;;;23.50;;
41817;SDS011;27493;51.730;5.294;2023-02-10T01:57:33;48.27;;;24.57;;
41817;SDS011;27493;51.730;5.294;2023-02-10T02:00:00;42.70;;;25.10;;
41817;SDS011;27493;51.730;5.294;2023-02-10T02:02:25;49.67;;;25.10;;
41817;SDS011;27493;51.730;5.294;2023-02-10T02:04:53;45.97;;;25.40;;
41817;SDS011;27493;51.730;5.294;2023-02-10T02:07:19;47.57;;;25.17;;
41817;SDS011;27493;51.730;5.294;2023-02-10T02:09:45;46.50;;;24.73;;
41817;SDS011;27493;51.730;5.294;2023-02-10T02:22:59;47.83;;;25.37;;
41817;SDS011;27493;51.730;5.294;2023-02-10T02:25:32;50.97;;;26.57;;
41817;SDS011;27493;51.730;5.294;2023-02-10T02:33:19;49.47;;;25.97;;
41817;SDS011;27493;51.730;5.294;2023-02-10T02:35:48;54.80;;;27.27;;
41817;SDS011;27493;51.730;5.294;2023-02-10T02:38:14;53.57;;;26.47;;
41817;SDS011;27493;51.730;5.294;2023-02-10T02:40:40;49.03;;;26.40;;
41817;SDS011;27493;51.730;5.294;2023-02-10T02:43:05;55.47;;;27.10;;
41817;SDS011;27493;51.730;5.294;2023-02-10T02:48:31;49.60;;;26.00;;
41817;SDS011;27493;51.730;5.294;2023-02-10T02:51:14;47.90;;;25.90;;
41817;SDS011;27493;51.730;5.294;2023-02-10T02:53:54;50.90;;;26.53;;
41817;SDS011;27493;51.730;5.294;2023-02-10T02:59:03;47.63;;;26.43;;
41817;SDS011;27493;51.730;5.294;2023-02-10T03:01:43;55.57;;;27.57;;
41817;SDS011;27493;51.730;5.294;2023-02-10T03:04:10;51.93;;;25.73;;
41817;SDS011;27493;51.730;5.294;2023-02-10T03:06:37;51.67;;;26.43;;
41817;SDS011;27493;51.730;5.294;2023-02-10T03:09:02;51.87;;;26.63;;
41817;SDS011;27493;51.730;5.294;2023-02-10T03:11:27;55.63;;;26.83;;
41817;SDS011;27493;51.730;5.294;2023-02-10T03:13:52;50.90;;;27.13;;
41817;SDS011;27493;51.730;5.294;2023-02-10T03:16:18;56.77;;;26.70;;
41817;SDS011;27493;51.730;5.294;2023-02-10T03:18:43;52.80;;;27.73;;
41817;SDS011;27493;51.730;5.294;2023-02-10T03:21:08;55.70;;;27.43;;
41817;SDS011;27493;51.730;5.294;2023-02-10T03:23:33;59.93;;;28.50;;
41817;SDS011;27493;51.730;5.294;2023-02-10T03:25:58;57.07;;;27.27;;
41817;SDS011;27493;51.730;5.294;2023-02-10T03:28:24;56.17;;;26.87;;
41817;SDS011;27493;51.730;5.294;2023-02-10T03:30:49;56.43;;;27.57;;
41817;SDS011;27493;51.730;5.294;2023-02-10T03:33:15;48.43;;;26.53;;
41817;SDS011;27493;51.730;5.294;2023-02-10T03:35:41;50.50;;;25.67;;
41817;SDS011;27493;51.730;5.294;2023-02-10T03:38:07;51.37;;;26.83;;
41817;SDS011;27493;51.730;5.294;2023-02-10T03:40:32;51.40;;;26.07;;
41817;SDS011;27493;51.730;5.294;2023-02-10T03:42:57;50.03;;;26.63;;
41817;SDS011;27493;51.730;5.294;2023-02-10T03:45:22;51.20;;;26.50;;
41817;SDS011;27493;51.730;5.294;2023-02-10T03:47:48;58.97;;;26.87;;
41817;SDS011;27493;51.730;5.294;2023-02-10T03:50:13;56.13;;;28.73;;
41817;SDS011;27493;51.730;5.294;2023-02-10T03:52:38;51.43;;;27.67;;
41817;SDS011;27493;51.730;5.294;2023-02-10T03:55:03;53.20;;;26.60;;
41817;SDS011;27493;51.730;5.294;2023-02-10T03:57:29;58.07;;;27.50;;
41817;SDS011;27493;51.730;5.294;2023-02-10T03:59:54;53.70;;;26.97;;
41817;SDS011;27493;51.730;5.294;2023-02-10T04:02:19;55.30;;;28.13;;
41817;SDS011;27493;51.730;5.294;2023-02-10T04:04:44;63.63;;;29.10;;
41817;SDS011;27493;51.730;5.294;2023-02-10T04:07:09;62.43;;;28.13;;
41817;SDS011;27493;51.730;5.294;2023-02-10T04:09:35;64.27;;;28.67;;
41817;SDS011;27493;51.730;5.294;2023-02-10T04:12:00;63.63;;;28.37;;
41817;SDS011;27493;51.730;5.294;2023-02-10T04:14:25;55.63;;;27.17;;
41817;SDS011;27493;51.730;5.294;2023-02-10T04:16:50;55.03;;;27.73;;
41817;SDS011;27493;51.730;5.294;2023-02-10T04:19:15;55.27;;;27.07;;
41817;SDS011;27493;51.730;5.294;2023-02-10T04:21:41;54.47;;;26.73;;
41817;SDS011;27493;51.730;5.294;2023-02-10T04:24:06;62.83;;;29.47;;
41817;SDS011;27493;51.730;5.294;2023-02-10T04:26:31;63.50;;;29.10;;
41817;SDS011;27493;51.730;5.294;2023-02-10T04:28:56;57.07;;;27.73;;
41817;SDS011;27493;51.730;5.294;2023-02-10T04:31:21;60.20;;;28.70;;
41817;SDS011;27493;51.730;5.294;2023-02-10T04:33:47;58.60;;;29.23;;
41817;SDS011;27493;51.730;5.294;2023-02-10T04:36:12;60.10;;;28.93;;
41817;SDS011;27493;51.730;5.294;2023-02-10T04:38:37;58.87;;;28.10;;
41817;SDS011;27493;51.730;5.294;2023-02-10T04:41:02;61.60;;;29.67;;
41817;SDS011;27493;51.730;5.294;2023-02-10T04:43:29;63.47;;;30.20;;
41817;SDS011;27493;51.730;5.294;2023-02-10T04:45:54;62.37;;;28.80;;
41817;SDS011;27493;51.730;5.294;2023-02-10T04:48:20;63.77;;;31.07;;
41817;SDS011;27493;51.730;5.294;2023-02-10T04:50:46;69.07;;;31.40;;
41817;SDS011;27493;51.730;5.294;2023-02-10T04:53:11;69.07;;;31.07;;
41817;SDS011;27493;51.730;5.294;2023-02-10T04:55:36;70.33;;;31.17;;
41817;SDS011;27493;51.730;5.294;2023-02-10T04:58:01;70.03;;;31.10;;
41817;SDS011;27493;51.730;5.294;2023-02-10T05:00:27;66.27;;;31.40;;
41817;SDS011;27493;51.730;5.294;2023-02-10T05:02:52;69.33;;;31.93;;
41817;SDS011;27493;51.730;5.294;2023-02-10T05:05:17;74.23;;;32.77;;
41817;SDS011;27493;51.730;5.294;2023-02-10T05:07:43;68.23;;;32.50;;
41817;SDS011;27493;51.730;5.294;2023-02-10T05:10:08;70.83;;;31.97;;
41817;SDS011;27493;51.730;5.294;2023-02-10T05:12:33;65.53;;;32.57;;
41817;SDS011;27493;51.730;5.294;2023-02-10T05:14:58;70.47;;;33.20;;
41817;SDS011;27493;51.730;5.294;2023-02-10T05:17:24;66.17;;;32.07;;
41817;SDS011;27493;51.730;5.294;2023-02-10T05:19:49;64.60;;;32.50;;
41817;SDS011;27493;51.730;5.294;2023-02-10T05:22:14;73.87;;;33.40;;
41817;SDS011;27493;51.730;5.294;2023-02-10T05:24:39;64.63;;;31.87;;
41817;SDS011;27493;51.730;5.294;2023-02-10T05:27:04;65.67;;;31.63;;
41817;SDS011;27493;51.730;5.294;2023-02-10T05:29:29;65.73;;;32.30;;
41817;SDS011;27493;51.730;5.294;2023-02-10T05:31:55;74.97;;;34.67;;
41817;SDS011;27493;51.730;5.294;2023-02-10T05:34:20;75.57;;;35.57;;
41817;SDS011;27493;51.730;5.294;2023-02-10T05:36:45;74.40;;;34.67;;
41817;SDS011;27493;51.730;5.294;2023-02-10T05:39:10;84.00;;;34.97;;
41817;SDS011;27493;51.730;5.294;2023-02-10T05:41:48;82.57;;;37.23;;
41817;SDS011;27493;51.730;5.294;2023-02-10T05:44:13;75.67;;;35.27;;
41817;SDS011;27493;51.730;5.294;2023-02-10T05:46:38;72.67;;;36.30;;
41817;SDS011;27493;51.730;5.294;2023-02-10T05:49:03;77.97;;;35.97;;
41817;SDS011;27493;51.730;5.294;2023-02-10T05:51:29;80.30;;;35.70;;
41817;SDS011;27493;51.730;5.294;2023-02-10T05:53:54;85.27;;;38.77;;
41817;SDS011;27493;51.730;5.294;2023-02-10T05:56:19;93.47;;;39.37;;
41817;SDS011;27493;51.730;5.294;2023-02-10T05:58:45;96.17;;;39.07;;
41817;SDS011;27493;51.730;5.294;2023-02-10T06:01:10;95.03;;;39.27;;
41817;SDS011;27493;51.730;5.294;2023-02-10T06:03:35;101.40;;;39.30;;
41817;SDS011;27493;51.730;5.294;2023-02-10T06:06:01;89.67;;;38.03;;
41817;SDS011;27493;51.730;5.294;2023-02-10T06:08:26;98.57;;;36.97;;
41817;SDS011;27493;51.730;5.294;2023-02-10T06:10:52;95.50;;;38.07;;
41817;SDS011;27493;51.730;5.294;2023-02-10T06:13:17;115.53;;;38.57;;
41817;SDS011;27493;51.730;5.294;2023-02-10T06:15:43;102.70;;;38.27;;
41817;SDS011;27493;51.730;5.294;2023-02-10T06:18:08;83.67;;;33.80;;
41817;SDS011;27493;51.730;5.294;2023-02-10T06:20:33;86.47;;;33.97;;
41817;SDS011;27493;51.730;5.294;2023-02-10T06:22:58;83.77;;;32.60;;
41817;SDS011;27493;51.730;5.294;2023-02-10T06:25:23;79.77;;;32.77;;
41817;SDS011;27493;51.730;5.294;2023-02-10T06:27:49;86.63;;;32.57;;
41817;SDS011;27493;51.730;5.294;2023-02-10T06:30:14;81.27;;;32.37;;
41817;SDS011;27493;51.730;5.294;2023-02-10T06:32:39;75.63;;;31.93;;
41817;SDS011;27493;51.730;5.294;2023-02-10T06:35:04;75.80;;;31.73;;
41817;SDS011;27493;51.730;5.294;2023-02-10T06:37:30;77.17;;;32.00;;
41817;SDS011;27493;51.730;5.294;2023-02-10T06:39:55;82.80;;;33.07;;
41817;SDS011;27493;51.730;5.294;2023-02-10T06:42:20;87.93;;;32.30;;
41817;SDS011;27493;51.730;5.294;2023-02-10T06:44:45;83.70;;;31.00;;
41817;SDS011;27493;51.730;5.294;2023-02-10T06:47:10;79.93;;;31.73;;
41817;SDS011;27493;51.730;5.294;2023-02-10T06:49:36;77.33;;;31.20;;
41817;SDS011;27493;51.730;5.294;2023-02-10T06:52:01;76.30;;;31.00;;
41817;SDS011;27493;51.730;5.294;2023-02-10T06:54:27;80.33;;;30.63;;
41817;SDS011;27493;51.730;5.294;2023-02-10T06:56:52;84.33;;;31.67;;
41817;SDS011;27493;51.730;5.294;2023-02-10T06:59:17;78.57;;;30.37;;
41817;SDS011;27493;51.730;5.294;2023-02-10T07:01:43;86.43;;;30.40;;
41817;SDS011;27493;51.730;5.294;2023-02-10T07:04:08;81.20;;;30.57;;
41817;SDS011;27493;51.730;5.294;2023-02-10T07:06:33;72.63;;;30.00;;
41817;SDS011;27493;51.730;5.294;2023-02-10T07:08:58;80.17;;;30.27;;
41817;SDS011;27493;51.730;5.294;2023-02-10T07:11:24;83.03;;;30.63;;
41817;SDS011;27493;51.730;5.294;2023-02-10T07:13:49;91.07;;;30.90;;
41817;SDS011;27493;51.730;5.294;2023-02-10T07:16:14;78.07;;;30.80;;
41817;SDS011;27493;51.730;5.294;2023-02-10T07:18:41;74.43;;;30.30;;
41817;SDS011;27493;51.730;5.294;2023-02-10T07:21:07;78.33;;;30.70;;
41817;SDS011;27493;51.730;5.294;2023-02-10T07:23:32;83.53;;;31.40;;
41817;SDS011;27493;51.730;5.294;2023-02-10T07:25:57;80.47;;;30.90;;
41817;SDS011;27493;51.730;5.294;2023-02-10T07:28:22;83.77;;;30.13;;
41817;SDS011;27493;51.730;5.294;2023-02-10T07:30:47;84.87;;;30.73;;
41817;SDS011;27493;51.730;5.294;2023-02-10T07:33:12;81.60;;;29.27;;
41817;SDS011;27493;51.730;5.294;2023-02-10T07:35:38;78.83;;;29.30;;
41817;SDS011;27493;51.730;5.294;2023-02-10T07:38:03;73.47;;;28.80;;
41817;SDS011;27493;51.730;5.294;2023-02-10T07:40:28;72.07;;;28.80;;
41817;SDS011;27493;51.730;5.294;2023-02-10T07:42:55;81.93;;;28.00;;
41817;SDS011;27493;51.730;5.294;2023-02-10T07:45:20;70.27;;;29.60;;
41817;SDS011;27493;51.730;5.294;2023-02-10T07:47:45;75.23;;;30.63;;
41817;SDS011;27493;51.730;5.294;2023-02-10T07:50:10;79.53;;;29.60;;
41817;SDS011;27493;51.730;5.294;2023-02-10T07:52:35;79.13;;;28.50;;
41817;SDS011;27493;51.730;5.294;2023-02-10T07:55:01;71.70;;;29.53;;
41817;SDS011;27493;51.730;5.294;2023-02-10T07:57:27;73.93;;;29.60;;
41817;SDS011;27493;51.730;5.294;2023-02-10T07:59:52;69.83;;;28.60;;
41817;SDS011;27493;51.730;5.294;2023-02-10T08:02:18;79.93;;;31.00;;
41817;SDS011;27493;51.730;5.294;2023-02-10T08:04:43;78.23;;;29.90;;
41817;SDS011;27493;51.730;5.294;2023-02-10T08:07:08;81.07;;;30.40;;
41817;SDS011;27493;51.730;5.294;2023-02-10T08:09:34;80.77;;;31.17;;
41817;SDS011;27493;51.730;5.294;2023-02-10T08:11:59;73.10;;;28.57;;
41817;SDS011;27493;51.730;5.294;2023-02-10T08:14:25;84.83;;;30.03;;
41817;SDS011;27493;51.730;5.294;2023-02-10T08:16:50;89.67;;;30.87;;
41817;SDS011;27493;51.730;5.294;2023-02-10T08:19:15;92.10;;;30.93;;
41817;SDS011;27493;51.730;5.294;2023-02-10T08:21:40;81.23;;;30.63;;
41817;SDS011;27493;51.730;5.294;2023-02-10T08:24:06;82.50;;;30.87;;
41817;SDS011;27493;51.730;5.294;2023-02-10T08:26:32;73.37;;;30.30;;
41817;SDS011;27493;51.730;5.294;2023-02-10T08:28:58;79.40;;;31.00;;
41817;SDS011;27493;51.730;5.294;2023-02-10T08:31:24;88.60;;;30.70;;
41817;SDS011;27493;51.730;5.294;2023-02-10T08:33:49;74.87;;;30.57;;
41817;SDS011;27493;51.730;5.294;2023-02-10T08:36:15;79.00;;;30.00;;
41817;SDS011;27493;51.730;5.294;2023-02-10T08:38:41;73.70;;;29.57;;
41817;SDS011;27493;51.730;5.294;2023-02-10T08:41:06;85.40;;;29.83;;
41817;SDS011;27493;51.730;5.294;2023-02-10T08:43:31;85.03;;;30.13;;
41817;SDS011;27493;51.730;5.294;2023-02-10T08:45:57;88.60;;;30.27;;
41817;SDS011;27493;51.730;5.294;2023-02-10T08:48:22;85.70;;;30.13;;
41817;SDS011;27493;51.730;5.294;2023-02-10T08:50:48;87.93;;;30.17;;
41817;SDS011;27493;51.730;5.294;2023-02-10T08:53:13;97.73;;;30.13;;
41817;SDS011;27493;51.730;5.294;2023-02-10T08:55:38;90.00;;;31.13;;
41817;SDS011;27493;51.730;5.294;2023-02-10T08:58:03;95.67;;;30.33;;
41817;SDS011;27493;51.730;5.294;2023-02-10T09:00:29;94.53;;;32.77;;
41817;SDS011;27493;51.730;5.294;2023-02-10T09:02:54;88.10;;;30.13;;
41817;SDS011;27493;51.730;5.294;2023-02-10T09:05:19;96.97;;;32.40;;
41817;SDS011;27493;51.730;5.294;2023-02-10T09:07:45;84.87;;;30.80;;
41817;SDS011;27493;51.730;5.294;2023-02-10T09:10:10;95.37;;;30.57;;
41817;SDS011;27493;51.730;5.294;2023-02-10T09:12:36;102.90;;;32.40;;
41817;SDS011;27493;51.730;5.294;2023-02-10T09:15:02;101.73;;;32.67;;
41817;SDS011;27493;51.730;5.294;2023-02-10T09:17:27;104.17;;;33.27;;
41817;SDS011;27493;51.730;5.294;2023-02-10T09:19:52;99.67;;;32.63;;
41817;SDS011;27493;51.730;5.294;2023-02-10T09:22:17;109.03;;;33.40;;
41817;SDS011;27493;51.730;5.294;2023-02-10T09:24:42;103.33;;;32.47;;
41817;SDS011;27493;51.730;5.294;2023-02-10T09:27:11;110.33;;;34.27;;
41817;SDS011;27493;51.730;5.294;2023-02-10T09:29:36;109.40;;;33.30;;
41817;SDS011;27493;51.730;5.294;2023-02-10T09:32:02;118.00;;;36.03;;
41817;SDS011;27493;51.730;5.294;2023-02-10T09:34:27;108.97;;;33.43;;
41817;SDS011;27493;51.730;5.294;2023-02-10T09:36:54;119.13;;;33.77;;
41817;SDS011;27493;51.730;5.294;2023-02-10T09:39:22;124.20;;;36.27;;
41817;SDS011;27493;51.730;5.294;2023-02-10T09:44:34;119.27;;;35.63;;
41817;SDS011;27493;51.730;5.294;2023-02-10T09:54:30;107.57;;;32.50;;
41817;SDS011;27493;51.730;5.294;2023-02-10T09:57:01;120.47;;;36.53;;
41817;SDS011;27493;51.730;5.294;2023-02-10T09:59:27;108.40;;;34.33;;
41817;SDS011;27493;51.730;5.294;2023-02-10T10:01:54;119.17;;;34.30;;
41817;SDS011;27493;51.730;5.294;2023-02-10T10:04:21;105.37;;;33.33;;
41817;SDS011;27493;51.730;5.294;2023-02-10T10:06:51;108.03;;;31.40;;
41817;SDS011;27493;51.730;5.294;2023-02-10T10:09:32;102.53;;;33.93;;
41817;SDS011;27493;51.730;5.294;2023-02-10T10:12:00;114.77;;;34.10;;
41817;SDS011;27493;51.730;5.294;2023-02-10T10:14:26;107.70;;;34.53;;
41817;SDS011;27493;51.730;5.294;2023-02-10T10:19:44;111.63;;;34.07;;
41817;SDS011;27493;51.730;5.294;2023-02-10T10:30:34;107.10;;;33.87;;
41817;SDS011;27493;51.730;5.294;2023-02-10T10:32:46;103.53;;;33.00;;
41817;SDS011;27493;51.730;5.294;2023-02-10T10:35:45;91.90;;;31.97;;
41817;SDS011;27493;51.730;5.294;2023-02-10T10:38:16;97.13;;;31.93;;
41817;SDS011;27493;51.730;5.294;2023-02-10T10:40:44;97.43;;;33.17;;
41817;SDS011;27493;51.730;5.294;2023-02-10T10:43:12;92.33;;;31.50;;
41817;SDS011;27493;51.730;5.294;2023-02-10T10:45:39;97.33;;;32.17;;
41817;SDS011;27493;51.730;5.294;2023-02-10T10:48:08;91.33;;;31.10;;
41817;SDS011;27493;51.730;5.294;2023-02-10T10:50:34;90.73;;;31.50;;
41817;SDS011;27493;51.730;5.294;2023-02-10T10:53:00;87.33;;;30.80;;
41817;SDS011;27493;51.730;5.294;2023-02-10T10:55:39;79.57;;;29.57;;
41817;SDS011;27493;51.730;5.294;2023-02-10T11:00:58;78.23;;;29.37;;
41817;SDS011;27493;51.730;5.294;2023-02-10T11:03:24;79.93;;;28.50;;
41817;SDS011;27493;51.730;5.294;2023-02-10T11:08:38;68.73;;;26.20;;
41817;SDS011;27493;51.730;5.294;2023-02-10T11:11:07;71.43;;;26.97;;
41817;SDS011;27493;51.730;5.294;2023-02-10T11:13:34;64.03;;;25.20;;
41817;SDS011;27493;51.730;5.294;2023-02-10T11:16:02;72.50;;;26.73;;
41817;SDS011;27493;51.730;5.294;2023-02-10T11:18:29;68.93;;;26.77;;
41817;SDS011;27493;51.730;5.294;2023-02-10T11:20:57;70.77;;;27.57;;
41817;SDS011;27493;51.730;5.294;2023-02-10T11:23:22;72.43;;;28.07;;
41817;SDS011;27493;51.730;5.294;2023-02-10T11:26:05;72.67;;;27.27;;
41817;SDS011;27493;51.730;5.294;2023-02-10T11:28:34;76.50;;;28.63;;
41817;SDS011;27493;51.730;5.294;2023-02-10T11:31:46;76.13;;;29.57;;
41817;SDS011;27493;51.730;5.294;2023-02-10T11:33:54;76.57;;;29.57;;
41817;SDS011;27493;51.730;5.294;2023-02-10T11:36:27;71.43;;;29.23;;
41817;SDS011;27493;51.730;5.294;2023-02-10T11:38:58;68.07;;;27.70;;
41817;SDS011;27493;51.730;5.294;2023-02-10T11:41:28;77.20;;;30.43;;
41817;SDS011;27493;51.730;5.294;2023-02-10T11:43:53;78.03;;;29.70;;
41817;SDS011;27493;51.730;5.294;2023-02-10T11:46:22;80.67;;;30.37;;
41817;SDS011;27493;51.730;5.294;2023-02-10T11:48:52;68.87;;;29.03;;
41817;SDS011;27493;51.730;5.294;2023-02-10T11:51:17;79.87;;;30.87;;
41817;SDS011;27493;51.730;5.294;2023-02-10T11:53:44;67.07;;;29.80;;
41817;SDS011;27493;51.730;5.294;2023-02-10T11:56:14;72.87;;;29.97;;
41817;SDS011;27493;51.730;5.294;2023-02-10T12:04:02;65.77;;;28.63;;
41817;SDS011;27493;51.730;5.294;2023-02-10T12:06:39;63.63;;;27.63;;
41817;SDS011;27493;51.730;5.294;2023-02-10T12:11:52;60.00;;;27.30;;
41817;SDS011;27493;51.730;5.294;2023-02-10T12:16:52;60.77;;;27.13;;
41817;SDS011;27493;51.730;5.294;2023-02-10T12:22:02;61.83;;;26.80;;
41817;SDS011;27493;51.730;5.294;2023-02-10T12:29:40;65.40;;;28.37;;
41817;SDS011;27493;51.730;5.294;2023-02-10T12:35:05;66.87;;;29.60;;
41817;SDS011;27493;51.730;5.294;2023-02-10T12:43:09;76.40;;;32.80;;
41817;SDS011;27493;51.730;5.294;2023-02-10T12:50:59;75.60;;;32.43;;
41817;SDS011;27493;51.730;5.294;2023-02-10T12:53:31;74.83;;;32.60;;
41817;SDS011;27493;51.730;5.294;2023-02-10T12:56:21;81.37;;;34.50;;
41817;SDS011;27493;51.730;5.294;2023-02-10T12:58:53;83.23;;;35.57;;
41817;SDS011;27493;51.730;5.294;2023-02-10T13:03:51;86.73;;;39.00;;
41817;SDS011;27493;51.730;5.294;2023-02-10T13:14:16;92.93;;;43.60;;
41817;SDS011;27493;51.730;5.294;2023-02-10T13:16:48;97.17;;;44.13;;
41817;SDS011;27493;51.730;5.294;2023-02-10T13:19:25;86.90;;;43.50;;
41817;SDS011;27493;51.730;5.294;2023-02-10T13:21:55;94.83;;;45.07;;
41817;SDS011;27493;51.730;5.294;2023-02-10T13:24:57;91.17;;;45.10;;
41817;SDS011;27493;51.730;5.294;2023-02-10T13:30:28;91.50;;;46.63;;
41817;SDS011;27493;51.730;5.294;2023-02-10T13:35:13;102.53;;;46.90;;
41817;SDS011;27493;51.730;5.294;2023-02-10T13:37:41;95.93;;;46.87;;
41817;SDS011;27493;51.730;5.294;2023-02-10T13:40:20;93.77;;;44.90;;
41817;SDS011;27493;51.730;5.294;2023-02-10T13:45:21;95.37;;;48.63;;
41817;SDS011;27493;51.730;5.294;2023-02-10T13:47:49;99.87;;;46.53;;
41817;SDS011;27493;51.730;5.294;2023-02-10T13:50:25;92.93;;;46.80;;
41817;SDS011;27493;51.730;5.294;2023-02-10T13:57:58;67.37;;;35.50;;
41817;SDS011;27493;51.730;5.294;2023-02-10T14:00:25;61.47;;;33.77;;
41817;SDS011;27493;51.730;5.294;2023-02-10T14:03:17;62.87;;;33.03;;
41817;SDS011;27493;51.730;5.294;2023-02-10T14:05:51;58.23;;;30.90;;
41817;SDS011;27493;51.730;5.294;2023-02-10T14:10:58;48.73;;;27.63;;
41817;SDS011;27493;51.730;5.294;2023-02-10T14:13:25;44.97;;;27.17;;
41817;SDS011;27493;51.730;5.294;2023-02-10T14:16:19;51.40;;;27.30;;
41817;SDS011;27493;51.730;5.294;2023-02-10T14:18:57;51.97;;;28.37;;
41817;SDS011;27493;51.730;5.294;2023-02-10T14:21:23;54.70;;;29.80;;
41817;SDS011;27493;51.730;5.294;2023-02-10T14:23:53;58.60;;;30.83;;
41817;SDS011;27493;51.730;5.294;2023-02-10T14:26:20;59.07;;;31.87;;
41817;SDS011;27493;51.730;5.294;2023-02-10T14:28:48;61.70;;;32.80;;
41817;SDS011;27493;51.730;5.294;2023-02-10T14:31:15;66.07;;;36.13;;
41817;SDS011;27493;51.730;5.294;2023-02-10T14:33:42;64.80;;;37.00;;
41817;SDS011;27493;51.730;5.294;2023-02-10T14:36:16;64.23;;;36.17;;
41817;SDS011;27493;51.730;5.294;2023-02-10T14:38:42;60.80;;;35.33;;
41817;SDS011;27493;51.730;5.294;2023-02-10T14:41:11;61.90;;;34.77;;
41817;SDS011;27493;51.730;5.294;2023-02-10T14:43:36;60.37;;;34.17;;
41817;SDS011;27493;51.730;5.294;2023-02-10T14:46:04;56.70;;;33.10;;
41817;SDS011;27493;51.730;5.294;2023-02-10T14:48:29;58.60;;;32.83;;
41817;SDS011;27493;51.730;5.294;2023-02-10T14:50:59;64.10;;;33.67;;
41817;SDS011;27493;51.730;5.294;2023-02-10T14:53:24;59.37;;;32.93;;
41817;SDS011;27493;51.730;5.294;2023-02-10T14:55:57;61.20;;;32.60;;
41817;SDS011;27493;51.730;5.294;2023-02-10T14:58:23;60.33;;;32.33;;
41817;SDS011;27493;51.730;5.294;2023-02-10T15:03:21;56.57;;;31.13;;
41817;SDS011;27493;51.730;5.294;2023-02-10T15:05:47;64.50;;;33.97;;
41817;SDS011;27493;51.730;5.294;2023-02-10T15:08:17;65.37;;;32.70;;
41817;SDS011;27493;51.730;5.294;2023-02-10T15:10:45;57.03;;;31.93;;
41817;SDS011;27493;51.730;5.294;2023-02-10T15:13:11;61.10;;;31.40;;
41817;SDS011;27493;51.730;5.294;2023-02-10T15:15:39;58.13;;;31.33;;
41817;SDS011;27493;51.730;5.294;2023-02-10T15:18:07;60.43;;;31.30;;
41817;SDS011;27493;51.730;5.294;2023-02-10T15:20:33;60.83;;;32.93;;
41817;SDS011;27493;51.730;5.294;2023-02-10T15:28:40;57.73;;;30.90;;
41817;SDS011;27493;51.730;5.294;2023-02-10T15:30:47;56.40;;;30.80;;
41817;SDS011;27493;51.730;5.294;2023-02-10T15:33:16;57.97;;;30.80;;
41817;SDS011;27493;51.730;5.294;2023-02-10T15:35:50;58.33;;;30.77;;
41817;SDS011;27493;51.730;5.294;2023-02-10T15:38:15;57.37;;;30.27;;
41817;SDS011;27493;51.730;5.294;2023-02-10T15:40:40;57.20;;;29.27;;
41817;SDS011;27493;51.730;5.294;2023-02-10T15:43:22;57.10;;;29.90;;
41817;SDS011;27493;51.730;5.294;2023-02-10T15:45:48;51.17;;;29.63;;
41817;SDS011;27493;51.730;5.294;2023-02-10T15:48:17;52.67;;;28.67;;
41817;SDS011;27493;51.730;5.294;2023-02-10T15:50:43;48.93;;;28.73;;
41817;SDS011;27493;51.730;5.294;2023-02-10T15:53:09;49.50;;;27.97;;
41817;SDS011;27493;51.730;5.294;2023-02-10T15:55:37;53.60;;;28.80;;
41817;SDS011;27493;51.730;5.294;2023-02-10T15:58:04;46.80;;;27.00;;
41817;SDS011;27493;51.730;5.294;2023-02-10T16:00:30;51.97;;;28.53;;
41817;SDS011;27493;51.730;5.294;2023-02-10T16:02:56;53.33;;;28.03;;
41817;SDS011;27493;51.730;5.294;2023-02-10T16:05:21;54.00;;;28.47;;
41817;SDS011;27493;51.730;5.294;2023-02-10T16:07:47;54.33;;;27.67;;
41817;SDS011;27493;51.730;5.294;2023-02-10T16:10:17;50.00;;;28.23;;
41817;SDS011;27493;51.730;5.294;2023-02-10T16:12:42;59.00;;;31.33;;
41817;SDS011;27493;51.730;5.294;2023-02-10T16:15:11;55.43;;;32.13;;
41817;SDS011;27493;51.730;5.294;2023-02-10T16:17:38;52.07;;;28.23;;